Flight Track Log - Related Links

Times and Time Zones

All times are in EST time to prevent confusion due to time zone crossing. See the N244A flight status page for this flight to view local times or setup timezone preferences in your user account.


Time Position Orientation Groundspeed Altitude Reporting Facility
EST Latitude Longitude Course Direction KTS MPH feet Rate Location/Type
Mon 01:50:35 PM 35.2283 -80.9369 10° North 157 181 1,600  Level Atlanta Center
Mon 01:51:18 PM 35.2594 -80.9306 10° North 193 222 3,500 2,451 Climbing Atlanta Center
Mon 01:51:46 PM 35.2775 -80.9019 52° Northeast 239 275 4,500 2,618 Climbing Atlanta Center
Mon 01:52:13 PM 35.2808 -80.8611 84° East 273 314 5,900 2,600 Climbing Atlanta Center
Mon 01:52:46 PM 35.2586 -80.8161 121° Southeast 304 350 7,100 1,355 Climbing Atlanta Center
Mon 01:53:46 PM 35.1814 -80.8114 177° South 256 295 8,000 1,300 Climbing Atlanta Center
Mon 01:54:46 PM 35.1025 -80.8322 192° South 264 304 9,700 2,050 Climbing Atlanta Center
Mon 01:55:46 PM 35.0111 -80.8461 187° South 292 336 12,100 2,150 Climbing Atlanta Center
Mon 01:56:46 PM 34.9089 -80.8500 182° South 324 373 14,000 2,493 Climbing Atlanta Center
Mon 01:59:13 PM 34.6422 -80.8736 184° South 393 452 20,700 2,783 Climbing Jacksonville Center
Mon 02:00:13 PM 34.5422 -80.8811 184° South 375 432 23,600 2,700 Climbing Jacksonville Center
Mon 02:01:13 PM 34.4486 -80.8933 186° South 359 413 26,100 2,000 Climbing Jacksonville Center
Mon 02:02:13 PM 34.3486 -80.8981 182° South 359 413 27,600 1,100 Climbing Jacksonville Center
Mon 02:03:13 PM 34.2608 -80.9003 181° South 359 413 28,300 900 Climbing Jacksonville Center
Mon 02:04:13 PM 34.1483 -80.9103 184° South 378 435 29,400 1,250 Climbing Jacksonville Center
Mon 02:05:13 PM 34.0358 -80.9178 183° South 398 458 30,800 1,300 Climbing Jacksonville Center
Mon 02:06:13 PM 33.9275 -80.9278 184° South 403 464 32,000 1,150 Climbing Jacksonville Center
Mon 02:07:13 PM 33.8150 -80.9328 182° South 403 464 33,100 950 Climbing Jacksonville Center
Mon 02:08:13 PM 33.7044 -80.9428 184° South 403 464 33,900 450 Climbing Jacksonville Center
Mon 02:09:13 PM 33.5878 -80.9503 183° South 408 470 34,000 50 Climbing Jacksonville Center
Mon 02:10:13 PM 33.4669 -80.9606 184° South 425 489 34,000  Level Jacksonville Center
Mon 02:11:13 PM 33.3481 -80.9731 185° South 430 495 34,000  Level Jacksonville Center
Mon 02:12:13 PM 33.2292 -80.9756 181° South 430 495 34,000  Level Jacksonville Center
Mon 02:13:13 PM 33.0958 -80.9858 184° South 440 506 34,000  Level Jacksonville Center
Mon 02:14:13 PM 32.9769 -80.9933 183° South 440 506 34,000  Level Jacksonville Center
Mon 02:15:13 PM 32.8558 -81.0033 184° South 440 506 34,000  Level Jacksonville Center
Mon 02:16:13 PM 32.7328 -81.0108 183° South 440 506 34,000  Level Jacksonville Center
Mon 02:17:13 PM 32.6119 -81.0206 184° South 437 503 34,000 -50 Level Jacksonville Center
Mon 02:18:13 PM 32.4911 -81.0281 183° South 437 503 33,900  Descending Jacksonville Center
Mon 02:19:13 PM 32.3722 -81.0356 183° South 437 503 34,000 50 Climbing Jacksonville Center
Mon 02:20:13 PM 32.2533 -81.0428 183° South 442 509 34,000  Level Jacksonville Center
Mon 02:21:13 PM 32.1406 -81.0500 183° South 442 509 34,000  Level Jacksonville Center
Mon 02:22:13 PM 32.0050 -81.0575 183° South 447 514 34,000  Level Jacksonville Center
Mon 02:23:13 PM 31.8819 -81.0672 184° South 447 514 34,000  Level Jacksonville Center
Mon 02:24:13 PM 31.7736 -81.0769 184° South 436 502 34,000  Level Jacksonville Center
Mon 02:25:13 PM 31.6358 -81.0844 183° South 445 512 34,000  Level Jacksonville Center
Mon 02:26:13 PM 31.5128 -81.0942 184° South 445 512 34,000  Level Jacksonville Center
Mon 02:27:13 PM 31.4022 -81.1011 183° South 440 506 34,000  Level Jacksonville Center
Mon 02:28:13 PM 31.2792 -81.1108 184° South 445 512 34,000 -50 Level Jacksonville Center
Mon 02:29:13 PM 31.1561 -81.1203 184° South 445 512 33,900 -50 Descending Jacksonville Center
Mon 02:30:13 PM 31.0311 -81.1275 183° South 445 512 33,900 50 Level Jacksonville Center
Mon 02:31:13 PM 30.9058 -81.1372 184° South 445 512 34,000  Climbing Jacksonville Center
Mon 02:32:13 PM 30.7703 -81.1444 183° South 445 512 33,900 -50 Descending Jacksonville Center
Mon 02:33:13 PM 30.6450 -81.1517 183° South 445 512 33,900  Level Jacksonville Center
Mon 02:34:13 PM 30.5197 -81.1539 181° South 450 518 33,900  Level Jacksonville Center
Mon 02:35:13 PM 30.3944 -81.1442 176° South 450 518 33,900  Level Jacksonville Center
Mon 02:36:13 PM 30.2650 -81.1417 179° South 461 531 33,900  Level Jacksonville Center
Mon 02:37:13 PM 30.1397 -81.1392 179° South 456 525 33,900  Level Jacksonville Center
Mon 02:38:13 PM 30.0122 -81.1344 178° South 456 525 33,900  Level Jacksonville Center
Mon 02:39:13 PM 29.8847 -81.1319 179° South 461 531 33,900 50 Level Jacksonville Center
Mon 02:40:13 PM 29.7553 -81.1269 178° South 461 531 34,000 50 Climbing Jacksonville Center
Mon 02:41:13 PM 29.6300 -81.1222 178° South 461 531 34,000 -50 Level Jacksonville Center
Mon 02:42:13 PM 29.5025 -81.1197 179° South 461 531 33,900 -50 Descending Jacksonville Center
Mon 02:43:13 PM 29.3878 -81.1075 175° South 453 521 33,900 50 Level Jacksonville Center
Mon 02:44:13 PM 29.2597 -81.0597 162° South 470 541 34,000  Climbing Jacksonville Center
Mon 02:46:24 PM 28.9700 -80.9650 164° South 486 559 33,900  Descending Miami Center
Mon 02:47:24 PM 28.8317 -80.9125 162° South 486 559 34,000 50 Climbing Miami Center
Mon 02:48:24 PM 28.6994 -80.8675 163° South 492 566 34,000 -850 Level Miami Center
Mon 02:49:24 PM 28.5858 -80.8256 162° South 487 560 32,300 -3,200 Descending Miami Center
Mon 02:50:24 PM 28.4433 -80.7758 163° South 487 560 27,600 -4,000 Descending Miami Center
Mon 02:51:24 PM 28.3236 -80.7244 159° South 495 570 24,300 -1,850 Descending Miami Center
Mon 02:52:24 PM 28.2039 -80.6803 162° South 485 558 23,900 -200 Descending Miami Center
Mon 02:53:24 PM 28.0758 -80.6264 160° South 485 558 23,900  Level Miami Center
Mon 02:54:24 PM 27.9456 -80.5847 164° South 485 558 23,900  Level Miami Center
Mon 02:55:24 PM 27.8028 -80.5353 163° South 485 558 23,900  Level Miami Center
Mon 02:56:24 PM 27.6744 -80.4914 163° South 485 558 23,900  Level Miami Center
Mon 02:57:24 PM 27.5461 -80.4428 161° South 480 552 23,900  Level Miami Center
Mon 02:58:24 PM 27.4203 -80.3875 159° South 480 552 23,900  Level Miami Center
Mon 02:59:24 PM 27.2919 -80.3367 161° South 485 558 23,900  Level Miami Center
Mon 03:00:24 PM 27.1639 -80.2839 160° South 485 558 23,900  Level Miami Center
Mon 03:01:24 PM 27.0375 -80.2333 160° South 485 558 23,900  Level Miami Center
Mon 03:02:36 PM 26.9094 -80.1808 160° South 480 552 23,900 -1,727 Level Miami Center
Mon 03:03:36 PM 26.7644 -80.1233 161° South 475 547 20,100 -3,750 Descending Miami Center
Mon 03:04:36 PM 26.6631 -80.0856 162° South 446 513 16,400 -3,354 Descending Miami Center
Mon 03:05:43 PM 26.5297 -80.0656 172° South 369 425 13,000 -1,700 Descending Miami Center
Mon 03:06:36 PM 26.4592 -80.0475 167° South 365 420 13,000 -353 Level Miami Center
Mon 03:06:51 PM 26.4258 -80.0442 175° South 343 395 12,600 -1,200 Descending Miami Center
Mon 03:07:36 PM 26.3592 -80.0308 170° South 346 398 11,800 -1,300 Descending Miami Center
Mon 03:07:51 PM 26.3342 -80.0278 174° South 326 375 11,300 -1,700 Descending Miami Center
Mon 03:08:36 PM 26.2739 -80.0169 171° South 346 398 10,100 -1,279 Descending Miami Center
Mon 03:08:52 PM 26.2361 -80.0208 185° South 342 394 10,000 -100 Descending Miami Center
Mon 03:09:36 PM 26.1794 -80.0353 193° South 339 390 10,000  Level Miami Center
Mon 03:09:53 PM 26.1353 -80.0481 195° South 420 483 10,000  Level Miami Center
Mon 03:10:36 PM 26.0661 -80.0694 196° South 383 441 10,000 90 Level Miami Center
Mon 03:11:00 PM 26.0028 -80.0883 195° South 431 496 10,100  Climbing Miami Center
Mon 03:11:36 PM 25.9400 -80.1031 192° South 417 480 10,000 -90 Descending Miami Center
Mon 03:12:07 PM 25.8789 -80.1197 194° South 426 490 10,000  Level Miami Center
Mon 03:12:36 PM 25.8244 -80.1344 194° South 431 496 10,000  Level Miami Center
Mon 03:13:02 PM 25.7822 -80.1494 198° South 346 398 10,000  Level Miami Center
Mon 03:13:04 PM 25.7822 -80.1472 90° East 348 400 10,000 -1,500 Level Miami Center
Mon 03:13:10 PM 25.7697 -80.1514 197° South 325 374 9,800 -1,500 Descending Miami Center
Mon 03:13:36 PM 25.7383 -80.1553 186° South 352 405 9,200 -787 Descending Miami Center
Mon 03:14:11 PM 25.6939 -80.1725 199° South 269 310 9,000 -200 Descending Miami Center
Mon 03:14:36 PM 25.6606 -80.1739 182° South 329 379 9,000 -1,273 Level Miami Center
Mon 03:15:17 PM 25.5981 -80.1697 177° South 304 350 7,600 -2,400 Descending Miami Center
Mon 03:15:36 PM 25.5731 -80.1667 174° South 317 365 6,600 -2,656 Descending Miami Center
Mon 03:16:18 PM 25.5167 -80.1631 177° South 308 354 4,900 -2,429 Descending Miami Center
Mon 03:18:00 PM 25.3510 -80.2598 190° South  Level FlightAware Approximate
Mon 03:25:00 PM 25.3167 -80.2667 190° South  Level FlightAware Approximate
Mon 03:26:00 PM 25.3254 -80.2748 190° South  Level Estimated
Mon 03:27:00 PM 25.3254 -80.2748 190° South  Level Estimated
Mon 03:28:00 PM 25.3254 -80.2748 190° South  Level Estimated
Mon 03:29:00 PM 25.3254 -80.2748 190° South  Level Estimated
Mon 03:30:00 PM 25.3254 -80.2748 190° South  Level Estimated
Mon 03:31:00 PM 25.3254 -80.2748 190° South  Level Estimated
Mon 03:32:00 PM 25.3254 -80.2748 190° South  Level Estimated

Login

Don't have an account? Register now (free) for customized features, flight alerts, and more!